Terminal Aerodrome Forecast
Issued by NWS Twin Cities, MN

Home | Current Version | Previous Version | Text Only | Print | Product List | Glossary Off
Versions: 1 2 3 4 5 6 7 8 9 10 11 12 13 14 15 16 17 18 19 20 21 22 23 24 25 26 27 28

000
FTUS43 KMPX 190800 AAA
TAFMSP
TAF AMD
KMSP 190846Z 1909/2012 15005KT P6SM BKN200
     FM191400 19007KT P6SM SCT150
     FM191900 23012G18KT P6SM SCT150
     FM200000 29007KT P6SM SKC=

USA.gov is the U.S. government's official web portal to all federal, state and local government web resources and services.